Terminal Aerodrome Forecast
Issued by NWS Sioux Falls, SD

Home | Current Version | Previous Version | Graphics & Text | Print | Product List | Glossary On
Versions: 1 2 3 4 5 6 7 8 9 10 11 12 13 14
310
FTUS43 KFSD 242320
TAFHON
TAF
KHON 242320Z 2500/2524 34015G24KT P6SM SCT250
     FM250400 34012KT P6SM SCT250
     FM250600 32007KT P6SM SKC
     FM251200 VRB04KT P6SM SCT120
     FM251700 21009KT P6SM SCT120
     FM251900 20012KT P6SM SCT100=

USA.gov is the U.S. government's official web portal to all federal, state and local government web resources and services.